No particular awareness of the weather is required.    There are no Weather-warnings
 Banner
iom-flag.gif  iom-flag.gif


Ballaugh webcam more information Ballaugh webcam


Thunder radar more information blitzortung!


Rain radar more information rain snow radar


Visit our other weather sites:

Template documentation
and downloads

And another site



Nearby METAR Reports

   
EGNS - Isle Of Man/Rona, United Kingdom
Distance from station: SSW 16 mi
Updated: 22-10-2020 14:50
Mostly Cloudy  
Mostly Cloudy  
   Wind: West 15 mph
Wind: West 15 mph
Temperature: 11°C
Dew Point: 4°C
Humidity: 62%
Barometer: 1005 hPa
Clouds: Mostly Cloudy
Visibility: More than 6 mi
Cloud details: Few Clouds 2500 ft,
Mostly Cloudy 4200 ft
EGNS 221350Z 28013KT 9999 FEW025 BKN042 11/04 Q1005 NOSIG
EGAC - Belfast Harbour, United Kingdom
Distance from station: WNW 57 mi
Updated: 22-10-2020 14:50
Mostly Cloudy  
Mostly Cloudy  
   Wind: West 11.5 mph
Wind: West 11.5 mph
Temperature: 11°C
Dew Point: 4°C
Humidity: 62%
Barometer: 1005 hPa
Clouds: Mostly Cloudy
Visibility: More than 6 mi
Cloud details: Mostly Cloudy 4600 ft
EGAC 221350Z AUTO 26010KT 220V300 9999 BKN046/// 11/04 Q1005
EGAA - Belfast/Aldergro, United Kingdom
Distance from station: WNW 71 mi
Updated: 22-10-2020 14:50
Mostly Cloudy  
Mostly Cloudy  
   Wind: West 13.8 mph
Wind: West 13.8 mph
Temperature: 10°C
Wind Chill: 7°C
Dew Point: 5°C
Humidity: 71%
Barometer: 1005 hPa
Clouds: Mostly Cloudy
Visibility: More than 6 mi
Cloud details: Mostly Cloudy 4400 ft
EGAA 221350Z 28012KT 9999 BKN044 10/05 Q1005
EGNH - Blackpool Airpor, United Kingdom
Distance from station: ESE 73 mi
Updated: 22-10-2020 14:50
Partly Cloudy  
Partly Cloudy  
   Wind: West 21.9 mph
Wind: West 21.9 mph
Temperature: 12°C
Dew Point: 8°C
Humidity: 77%
Barometer: 1005 hPa
Clouds: Partly Cloudy
Visibility: More than 6 mi
Cloud details: Partly Cloudy 1800 ft,
Partly Cloudy 3800 ft
EGNH 221350Z 28019KT 9999 SCT018 SCT038 12/08 Q1005
EGOV - Valley Raf, United Kingdom
Distance from station: S 73 mi
Updated: 22-10-2020 14:50
Mostly Cloudy  
Mostly Cloudy  
   Wind: West 15 mph
Wind: West 15 mph
Temperature: 11°C
Dew Point: 3°C
Humidity: 58%
Barometer: 1007 hPa
Clouds: Mostly Cloudy
Visibility: More than 6 mi
Cloud details: Mostly Cloudy 4100 ft
EGOV 221350Z 26013KT 9999 BKN041 11/03 Q1007 NOSIG RMK BLU BLU
EGPK - Prestwick(Civ/Na, United Kingdom
Distance from station: N 82 mi
Updated: 22-10-2020 14:50
Light Drizzle, Mostly Cloudy  
Light Drizzle, Mostly Cloudy  
   Wind: WNW 8.1 mph
Wind: WNW 8.1 mph
Temperature: 11°C
Dew Point: 9°C
Humidity: 88%
Barometer: 1003 hPa
Clouds: Mostly Cloudy
Visibility: 4 mi
Cloud details: Few Clouds 800 ft,
Partly Cloudy 1600 ft,
Mostly Cloudy 3000 ft
EGPK 221350Z 30007KT 7000 -DZ FEW008 SCT016 BKN030 11/09 Q1003
EIDW - Dublin Airport, Ireland
Distance from station: SW 93 mi
Updated: 22-10-2020 15:00
Mostly Cloudy  
Mostly Cloudy  
   Wind: West 13.8 mph
Wind: West 13.8 mph
Temperature: 10°C
Wind Chill: 7°C
Dew Point: 3°C
Humidity: 62%
Barometer: 1006 hPa
Clouds: Mostly Cloudy
Visibility: More than 6 mi
Cloud details: Few Clouds 1800 ft,
Partly Cloudy 2700 ft,
Mostly Cloudy 3900 ft
EIDW 221400Z 26012KT 230V290 9999 FEW018 SCT027 BKN039 10/03 Q1006 NOSIG
EGGP - Liverpool Airpor, United Kingdom
Distance from station: SE 98 mi
Updated: 22-10-2020 14:50
Nearby Showers, Mostly Cloudy  
Nearby Showers, Mostly Cloudy  
   Wind: WSW 11.5 mph
Wind: WSW 11.5 mph
Temperature: 11°C
Dew Point: 8°C
Humidity: 82%
Barometer: 1006 hPa
Clouds: Mostly Cloudy
Visibility: More than 6 mi
Cloud details: Few Clouds 1900 ft,
Partly Cloudy 2500 ft,
Mostly Cloudy 4000 ft
EGGP 221350Z 25010KT 9999 VCSH FEW019 SCT025 BKN040 11/08 Q1006
EGPF - Glasgow Airport, United Kingdom
Distance from station: N 107 mi
Updated: 22-10-2020 14:50
Overcast  
Overcast  
   Wind: varies 3.5 mph
Wind: varies 3.5 mph
Temperature: 11°C
Dew Point: 8°C
Humidity: 82%
Barometer: 1002 hPa
Clouds: Overcast
Visibility: More than 6 mi
Cloud details: Mostly Cloudy 2100 ft,
Overcast 3200 ft
EGPF 221350Z AUTO VRB03KT 9999 BKN021 OVC032 11/08 Q1002
EGCC - Manchester Intl, United Kingdom
Distance from station: SE 114 mi
Updated: 22-10-2020 14:50
Overcast  
Overcast  
   Wind: WSW 11.5 mph
Wind: WSW 11.5 mph
Temperature: 11°C
Dew Point: 7°C
Humidity: 77%
Barometer: 1006 hPa
Clouds: Overcast
Visibility: More than 6 mi
Cloud details: Mostly Cloudy 2200 ft,
Overcast 4500 ft
EGCC 221350Z AUTO 24010KT 9999 BKN022 OVC045 11/07 Q1006
EGNM - Leeds And Bradfo, United Kingdom
Distance from station: ESE 122 mi
Updated: 22-10-2020 14:50
Partly Cloudy  
Partly Cloudy  
   Wind: WSW 23 mph
Wind: WSW 23 mph
Temperature: 10°C
Wind Chill: 6°C
Dew Point: 7°C
Humidity: 82%
Barometer: 1004 hPa
Clouds: Partly Cloudy
Visibility: More than 6 mi
Cloud details: Partly Cloudy 1500 ft,
Partly Cloudy 1800 ft
EGNM 221350Z 24020KT 9999 SCT015 SCT018 10/07 Q1004
 

Script developed by  Saratoga-weather.org Adapted for the template by  Weerstation Leuven

You find our weather info also at:

UK Metoffice

WeatherCloud

WeatherlinkIP

Equipment we use:

Weather-station
Davis VP2

Weather-program
Weather Display

Weather-server
My Computer

Provider
Fasthosts

Davis VP2

Weather Display

My Computer

Fasthosts

 Banner1
iom-flag.gif  iom-flag.gif
Flag Counter 

Hits since site created in 2003